Time;durP1;ratioP1;P1;durP2;ratioP2;P2;SDS_P1;SDS_P2;PMS_P1;PMS_P2;Temp;Humidity;BMP_temperature;BMP_pressure;BME280_temperature;BME280_humidity;BME280_pressure;Samples;Min_cycle;Max_cycle;Signal;HPM_P1;HPM_P2
2021/09/04 04:12:13;;;;;;;11.75;7.75;;;;;;;;;;5858590;30;20486;-69
2021/09/04 04:15:15;;;;;;;12.73;7.50;;;;;;;;;;5957501;29;20050;-71
2021/09/04 04:18:16;;;;;;;10.63;7.60;;;;;;;;;;6025015;29;20136;-67
2021/09/04 04:21:18;;;;;;;14.27;7.68;;;;;;;;;;6035130;29;20043;-67
2021/09/04 04:24:20;;;;;;;12.05;7.47;;;;;;;;;;6039227;29;20069;-67
2021/09/04 04:27:22;;;;;;;9.05;7.25;;;;;;;;;;6032971;29;20405;-66
2021/09/04 04:30:24;;;;;;;10.40;7.65;;;;;;;;;;6046852;29;20140;-75
2021/09/04 04:33:26;;;;;;;11.63;7.63;;;;;;;;;;6077191;29;20040;-69
2021/09/04 04:36:27;;;;;;;10.85;7.55;;;;;;;;;;6072720;29;20105;-66
2021/09/04 04:39:29;;;;;;;12.02;7.20;;;;;;;;;;6087433;29;20952;-66
2021/09/04 04:42:32;;;;;;;8.05;6.88;;;;;;;;;;6078226;29;20040;-66
2021/09/04 04:45:34;;;;;;;10.23;7.28;;;;;;;;;;6077807;29;20138;-73
2021/09/04 04:48:35;;;;;;;10.70;7.80;;;;;;;;;;6077477;29;20119;-66
2021/09/04 04:51:37;;;;;;;12.18;7.00;;;;;;;;;;6077041;29;20260;-66
2021/09/04 04:54:38;;;;;;;10.27;7.25;;;;;;;;;;6081856;29;20532;-69
2021/09/04 04:57:41;;;;;;;9.85;7.18;;;;;;;;;;6081540;29;20194;-66
2021/09/04 05:00:43;;;;;;;12.65;6.38;;;;;;;;;;6096550;29;20103;-69
2021/09/04 05:03:44;;;;;;;12.27;7.68;;;;;;;;;;6097204;29;20048;-67
2021/09/04 05:06:46;;;;;;;10.38;7.00;;;;;;;;;;6101167;29;20136;-67
2021/09/04 05:09:48;;;;;;;12.48;6.97;;;;;;;;;;6106398;29;20080;-67
2021/09/04 05:12:51;;;;;;;14.40;6.85;;;;;;;;;;6101521;29;20431;-66
2021/09/04 05:15:52;;;;;;;8.80;6.50;;;;;;;;;;6096462;29;20056;-70
2021/09/04 05:18:54;;;;;;;12.25;6.47;;;;;;;;;;6113820;28;20086;-67
2021/09/04 05:21:55;;;;;;;10.88;7.25;;;;;;;;;;6172901;28;20046;-67
2021/09/04 05:24:57;;;;;;;15.80;7.40;;;;;;;;;;6185535;28;20047;-67
2021/09/04 05:28:00;;;;;;;12.10;6.75;;;;;;;;;;6180354;28;20198;-68
2021/09/04 05:31:03;;;;;;;13.95;7.97;;;;;;;;;;6177796;28;20491;-68
2021/09/04 05:34:04;;;;;;;12.63;7.65;;;;;;;;;;6186088;28;20092;-67
2021/09/04 05:37:06;;;;;;;13.30;6.93;;;;;;;;;;6179482;28;20076;-67
2021/09/04 05:40:09;;;;;;;15.90;7.10;;;;;;;;;;6183849;28;20050;-68
2021/09/04 05:43:12;;;;;;;17.07;7.83;;;;;;;;;;6180479;28;20096;-66
2021/09/04 05:46:14;;;;;;;11.18;7.43;;;;;;;;;;6175477;28;21011;-67
2021/09/04 05:49:15;;;;;;;14.93;7.47;;;;;;;;;;6186668;28;20470;-67
2021/09/04 05:52:17;;;;;;;11.18;6.75;;;;;;;;;;6180274;28;20050;-66
2021/09/04 05:55:18;;;;;;;12.52;7.03;;;;;;;;;;6181701;28;20447;-69
2021/09/04 05:58:23;;;;;;;12.23;7.03;;;;;;;;;;6195295;28;20488;-69
2021/09/04 06:01:25;;;;;;;11.00;7.03;;;;;;;;;;6182031;28;20550;-66
2021/09/04 06:04:26;;;;;;;10.68;6.57;;;;;;;;;;6179029;28;20042;-67
2021/09/04 06:07:28;;;;;;;8.95;5.75;;;;;;;;;;6173278;28;20123;-70
2021/09/04 06:10:29;;;;;;;10.63;6.20;;;;;;;;;;6180626;28;20130;-70
2021/09/04 06:13:32;;;;;;;11.38;5.88;;;;;;;;;;6185871;28;20069;-66
2021/09/04 06:16:34;;;;;;;12.80;7.15;;;;;;;;;;6171505;28;20183;-69
2021/09/04 06:19:35;;;;;;;10.93;6.35;;;;;;;;;;6186242;28;20126;-67
2021/09/04 06:22:37;;;;;;;8.85;6.18;;;;;;;;;;6175559;28;20177;-67
2021/09/04 06:25:39;;;;;;;13.07;6.97;;;;;;;;;;6178810;28;20136;-67
2021/09/04 06:28:42;;;;;;;7.57;6.47;;;;;;;;;;6185930;28;20153;-66
2021/09/04 06:31:43;;;;;;;13.02;6.88;;;;;;;;;;6172839;28;20051;-67
2021/09/04 06:34:45;;;;;;;11.80;6.10;;;;;;;;;;6181022;28;20130;-69
2021/09/04 06:37:46;;;;;;;11.38;6.22;;;;;;;;;;6172550;28;20058;-67
2021/09/04 06:40:48;;;;;;;8.00;6.43;;;;;;;;;;6177165;28;20061;-67
2021/09/04 06:43:51;;;;;;;16.00;7.72;;;;;;;;;;6182270;28;20042;-69
2021/09/04 06:46:53;;;;;;;13.85;8.38;;;;;;;;;;6177062;28;20117;-69
2021/09/04 06:49:54;;;;;;;11.82;7.80;;;;;;;;;;6179624;28;20231;-67
2021/09/04 06:52:56;;;;;;;8.73;6.50;;;;;;;;;;6175513;28;20101;-68
2021/09/04 06:55:57;;;;;;;9.68;7.07;;;;;;;;;;6177691;28;20202;-67
2021/09/04 06:59:00;;;;;;;14.98;7.93;;;;;;;;;;6182340;28;20050;-67
2021/09/04 07:02:02;;;;;;;14.18;8.82;;;;;;;;;;6174805;28;20046;-68
2021/09/04 07:05:04;;;;;;;13.32;8.82;;;;;;;;;;6180695;28;20515;-67
2021/09/04 07:08:06;;;;;;;12.17;9.70;;;;;;;;;;6177597;28;20086;-67
2021/09/04 07:11:07;;;;;;;12.45;9.30;;;;;;;;;;6176183;28;20052;-67
2021/09/04 07:14:10;;;;;;;12.27;8.85;;;;;;;;;;6181667;28;20208;-67
2021/09/04 07:17:12;;;;;;;13.30;8.55;;;;;;;;;;6169950;28;20194;-67
2021/09/04 07:20:13;;;;;;;11.20;8.55;;;;;;;;;;6183268;28;20105;-70
2021/09/04 07:23:15;;;;;;;12.48;8.38;;;;;;;;;;6175095;28;20050;-69
2021/09/04 07:26:16;;;;;;;15.10;9.43;;;;;;;;;;6176391;28;20493;-69
2021/09/04 07:29:19;;;;;;;12.15;9.10;;;;;;;;;;6181845;28;20047;-67
2021/09/04 07:32:21;;;;;;;9.93;8.18;;;;;;;;;;6170112;28;20043;-67
2021/09/04 07:35:23;;;;;;;13.77;10.35;;;;;;;;;;6174732;28;20054;-71
2021/09/04 07:38:24;;;;;;;14.45;9.73;;;;;;;;;;6177905;28;20590;-68
2021/09/04 07:41:26;;;;;;;11.13;7.88;;;;;;;;;;6174268;28;20042;-67
2021/09/04 07:44:29;;;;;;;9.63;7.72;;;;;;;;;;6182006;28;20640;-67
2021/09/04 07:47:30;;;;;;;13.25;8.55;;;;;;;;;;6170582;28;20096;-67
2021/09/04 07:50:32;;;;;;;12.85;8.10;;;;;;;;;;6171793;28;20046;-70
2021/09/04 07:53:34;;;;;;;11.23;8.48;;;;;;;;;;6184114;28;20096;-70
2021/09/04 07:56:35;;;;;;;14.77;10.00;;;;;;;;;;6177147;28;20112;-67
2021/09/04 07:59:38;;;;;;;13.20;8.80;;;;;;;;;;6181337;28;20092;-67
2021/09/04 08:02:40;;;;;;;;;;;;;;;;;;6174522;28;20050;-70
2021/09/04 08:05:41;;;;;;;12.00;9.82;;;;;;;;;;6172297;28;19925;-70
2021/09/04 08:08:43;;;;;;;14.07;10.88;;;;;;;;;;6181753;28;20073;-67
2021/09/04 08:11:44;;;;;;;12.40;10.80;;;;;;;;;;6179651;28;20141;-67
2021/09/04 08:14:47;;;;;;;23.02;10.93;;;;;;;;;;6179084;28;20081;-68
2021/09/04 08:17:49;;;;;;;14.93;11.15;;;;;;;;;;6170242;28;20057;-67
2021/09/04 08:20:51;;;;;;;14.30;11.17;;;;;;;;;;6172044;28;20161;-70
2021/09/04 08:23:52;;;;;;;14.32;10.88;;;;;;;;;;6180150;28;20100;-67
2021/09/04 08:26:54;;;;;;;12.85;9.73;;;;;;;;;;6169918;28;20135;-67
2021/09/04 08:29:57;;;;;;;10.13;9.02;;;;;;;;;;6187298;28;20050;-67
2021/09/04 08:32:58;;;;;;;12.40;11.13;;;;;;;;;;6174431;28;20133;-67
2021/09/04 08:36:00;;;;;;;14.88;10.93;;;;;;;;;;6177093;28;20047;-68
2021/09/04 08:39:01;;;;;;;10.85;9.57;;;;;;;;;;6188325;28;20069;-69
2021/09/04 08:42:03;;;;;;;10.13;8.88;;;;;;;;;;6181150;28;20533;-67
2021/09/04 08:45:07;;;;;;;12.45;9.98;;;;;;;;;;6187615;28;20618;-70
2021/09/04 08:48:10;;;;;;;16.63;8.30;;;;;;;;;;6177370;28;20125;-67
2021/09/04 08:51:11;;;;;;;14.10;10.82;;;;;;;;;;6176568;28;20062;-67
2021/09/04 08:54:13;;;;;;;13.20;10.65;;;;;;;;;;6184238;28;20046;-67
2021/09/04 08:57:14;;;;;;;11.43;10.20;;;;;;;;;;6185085;28;20106;-67
2021/09/04 09:00:28;;;;;;;15.03;10.87;;;;;;;;;;6189028;28;20042;-71
2021/09/04 09:03:29;;;;;;;12.63;11.25;;;;;;;;;;6176672;28;20042;-67
2021/09/04 09:06:33;;;;;;;14.75;11.05;;;;;;;;;;6183252;28;20122;-67
2021/09/04 09:09:35;;;;;;;11.02;9.05;;;;;;;;;;6191028;28;20105;-67
2021/09/04 09:12:37;;;;;;;12.23;9.48;;;;;;;;;;6182467;28;20490;-70
2021/09/04 09:15:40;;;;;;;12.13;9.45;;;;;;;;;;6179369;28;20186;-67
2021/09/04 09:18:42;;;;;;;11.57;9.98;;;;;;;;;;6178311;28;20129;-68
2021/09/04 09:21:44;;;;;;;9.90;7.50;;;;;;;;;;6177179;28;20053;-67
2021/09/04 09:24:45;;;;;;;10.57;8.38;;;;;;;;;;6180402;28;20047;-67
2021/09/04 09:27:58;;;;;;;15.77;9.43;;;;;;;;;;6176555;28;20129;-67
2021/09/04 09:31:01;;;;;;;11.98;9.40;;;;;;;;;;6176245;28;20068;-67
2021/09/04 09:34:09;;;;;;;8.75;7.85;;;;;;;;;;6181676;28;20109;-67
2021/09/04 09:37:11;;;;;;;8.43;7.13;;;;;;;;;;6176284;28;20057;-67
2021/09/04 09:40:22;;;;;;;11.18;7.70;;;;;;;;;;6182345;28;20131;-70
2021/09/04 09:43:25;;;;;;;8.93;6.95;;;;;;;;;;6185993;28;20913;-68
2021/09/04 09:46:27;;;;;;;11.82;8.30;;;;;;;;;;6175025;28;20157;-68
2021/09/04 09:49:31;;;;;;;8.77;7.85;;;;;;;;;;6187821;28;20047;-67
2021/09/04 09:52:33;;;;;;;7.93;7.13;;;;;;;;;;6183981;28;20513;-68
2021/09/04 09:55:35;;;;;;;10.02;7.05;;;;;;;;;;6188377;28;20927;-66
2021/09/04 09:58:38;;;;;;;8.80;7.90;;;;;;;;;;6195573;28;20172;-67
2021/09/04 10:01:42;;;;;;;7.88;7.15;;;;;;;;;;6170012;28;20049;-69
2021/09/04 10:04:47;;;;;;;10.45;7.28;;;;;;;;;;6182985;28;20047;-67
2021/09/04 10:07:53;;;;;;;7.95;7.15;;;;;;;;;;6175710;28;20133;-69
2021/09/04 10:10:56;;;;;;;10.88;7.22;;;;;;;;;;6181333;28;20047;-68
2021/09/04 10:13:58;;;;;;;8.38;7.05;;;;;;;;;;6185814;28;20058;-67
2021/09/04 10:17:02;;;;;;;7.43;6.45;;;;;;;;;;6173694;28;20486;-67
2021/09/04 10:20:05;;;;;;;6.80;6.10;;;;;;;;;;6181743;28;20139;-67
2021/09/04 10:23:22;;;;;;;11.52;5.80;;;;;;;;;;6184501;28;20133;-67
2021/09/04 10:26:29;;;;;;;6.38;5.15;;;;;;;;;;6178431;28;20055;-68
2021/09/04 10:29:40;;;;;;;6.53;5.07;;;;;;;;;;6186086;28;20053;-70
2021/09/04 10:32:56;;;;;;;7.37;5.30;;;;;;;;;;6172973;28;20447;-68
2021/09/04 10:35:59;;;;;;;7.20;4.70;;;;;;;;;;6174262;28;20043;-68
2021/09/04 10:39:00;;;;;;;6.65;4.50;;;;;;;;;;6183078;28;20134;-70
2021/09/04 10:42:02;;;;;;;;;;;;;;;;;;6177738;28;20074;-69
2021/09/04 10:45:06;;;;;;;7.68;4.25;;;;;;;;;;6179606;28;19968;-68
2021/09/04 10:48:16;;;;;;;6.03;5.20;;;;;;;;;;6172540;28;20089;-68
2021/09/04 10:51:17;;;;;;;5.50;4.57;;;;;;;;;;6175017;28;20051;-68
2021/09/04 10:54:41;;;;;;;5.18;4.60;;;;;;;;;;6186634;28;20053;-67
2021/09/04 10:57:47;;;;;;;8.07;4.93;;;;;;;;;;6174356;28;20093;-68
2021/09/04 11:00:49;;;;;;;8.65;4.57;;;;;;;;;;6170481;28;20046;-68
2021/09/04 11:03:53;;;;;;;8.48;4.65;;;;;;;;;;6179305;28;20074;-68
2021/09/04 11:06:56;;;;;;;5.60;4.97;;;;;;;;;;6173463;28;20503;-70
2021/09/04 11:09:58;;;;;;;6.03;4.80;;;;;;;;;;6181669;28;20126;-70
2021/09/04 11:13:07;;;;;;;32.30;29.00;;;;;;;;;;6173611;28;20088;-74
2021/09/04 11:16:36;;;;;;;20.80;18.90;;;;;;;;;;6174794;28;20714;-72
2021/09/04 11:19:40;;;;;;;9.15;5.90;;;;;;;;;;6177886;28;20038;-71
2021/09/04 11:22:45;;;;;;;5.80;4.30;;;;;;;;;;6176633;28;20054;-71
2021/09/04 11:25:46;;;;;;;5.45;4.80;;;;;;;;;;6179016;28;20133;-70
2021/09/04 11:28:54;;;;;;;11.02;5.65;;;;;;;;;;6176800;28;20194;-74
2021/09/04 11:31:58;;;;;;;36.45;32.72;;;;;;;;;;6169370;28;20054;-72
2021/09/04 11:35:02;;;;;;;10.25;7.30;;;;;;;;;;6181340;28;20129;-75
2021/09/04 11:38:03;;;;;;;5.80;5.20;;;;;;;;;;6172824;28;20116;-71
2021/09/04 11:41:05;;;;;;;9.27;5.53;;;;;;;;;;6171183;28;20474;-72
2021/09/04 11:44:07;;;;;;;5.55;4.97;;;;;;;;;;6182527;28;20050;-71
2021/09/04 11:47:12;;;;;;;5.32;4.82;;;;;;;;;;6169096;28;20113;-72
2021/09/04 11:50:22;;;;;;;5.20;4.00;;;;;;;;;;6178576;28;20173;-75
2021/09/04 11:53:28;;;;;;;6.07;4.97;;;;;;;;;;6178253;28;20035;-71
2021/09/04 11:56:31;;;;;;;7.25;4.75;;;;;;;;;;6173832;28;20634;-71
2021/09/04 11:59:33;;;;;;;6.90;5.25;;;;;;;;;;6183111;28;20062;-75
2021/09/04 12:02:35;;;;;;;5.95;4.78;;;;;;;;;;6165713;28;20804;-70
2021/09/04 12:05:40;;;;;;;9.30;4.82;;;;;;;;;;6172201;28;20080;-71
2021/09/04 12:08:42;;;;;;;7.78;4.78;;;;;;;;;;6181572;28;20457;-69
2021/09/04 12:11:44;;;;;;;5.75;5.13;;;;;;;;;;6170702;28;20125;-71
2021/09/04 12:14:45;;;;;;;7.43;4.97;;;;;;;;;;6183909;28;20034;-69
2021/09/04 12:17:49;;;;;;;6.82;4.60;;;;;;;;;;6168768;28;20125;-69
2021/09/04 12:20:52;;;;;;;6.80;5.45;;;;;;;;;;6177104;28;20043;-71
2021/09/04 12:23:55;;;;;;;5.97;5.43;;;;;;;;;;6180752;28;20045;-69
2021/09/04 12:26:57;;;;;;;5.35;4.38;;;;;;;;;;6175652;28;20142;-69
2021/09/04 12:30:02;;;;;;;7.57;5.00;;;;;;;;;;6186571;28;20120;-72
2021/09/04 12:33:10;;;;;;;6.07;4.45;;;;;;;;;;6162775;28;20108;-72
2021/09/04 12:36:13;;;;;;;5.97;5.47;;;;;;;;;;6170859;28;20138;-72
2021/09/04 12:39:18;;;;;;;6.00;5.40;;;;;;;;;;6181463;28;20330;-70
2021/09/04 12:42:20;;;;;;;5.63;5.00;;;;;;;;;;6173062;28;20046;-70
2021/09/04 12:45:22;;;;;;;6.80;4.90;;;;;;;;;;6172401;28;20129;-74
2021/09/04 12:48:37;;;;;;;5.72;4.22;;;;;;;;;;6175786;28;20173;-71
2021/09/04 12:51:40;;;;;;;5.43;4.72;;;;;;;;;;6169249;28;20073;-71
2021/09/04 12:54:43;;;;;;;9.70;6.85;;;;;;;;;;6180807;28;20058;-71
2021/09/04 12:57:45;;;;;;;8.23;6.38;;;;;;;;;;6173559;28;20076;-71
2021/09/04 13:00:46;;;;;;;;;;;;;;;;;;6170011;28;20109;-71
2021/09/04 13:03:48;;;;;;;5.50;4.88;;;;;;;;;;6173437;28;19992;-68
2021/09/04 13:06:59;;;;;;;9.88;8.38;;;;;;;;;;6171324;28;20154;-70
2021/09/04 13:10:00;;;;;;;6.38;5.63;;;;;;;;;;6183485;28;20176;-69
2021/09/04 13:13:02;;;;;;;6.95;4.40;;;;;;;;;;6173546;28;20047;-70
2021/09/04 13:16:04;;;;;;;6.97;4.15;;;;;;;;;;6169288;28;20636;-74
2021/09/04 13:19:05;;;;;;;6.45;4.10;;;;;;;;;;6182370;28;20174;-70
2021/09/04 13:22:08;;;;;;;5.35;4.43;;;;;;;;;;6179846;28;20069;-70
2021/09/04 13:25:12;;;;;;;5.03;3.95;;;;;;;;;;6187305;28;20722;-73
2021/09/04 13:28:14;;;;;;;4.45;3.88;;;;;;;;;;6185026;28;20544;-70
2021/09/04 13:31:15;;;;;;;4.32;3.92;;;;;;;;;;6177627;28;20094;-70
2021/09/04 13:34:18;;;;;;;;;;;;;;;;;;6178344;28;20045;-70
2021/09/04 13:37:21;;;;;;;4.63;4.07;;;;;;;;;;6171848;28;19995;-71
2021/09/04 13:40:23;;;;;;;6.88;3.92;;;;;;;;;;6176934;28;20126;-73
2021/09/04 13:43:24;;;;;;;5.95;3.97;;;;;;;;;;6184384;28;20154;-70
2021/09/04 13:46:26;;;;;;;4.50;3.90;;;;;;;;;;6176095;28;20042;-70
2021/09/04 13:49:28;;;;;;;6.20;3.80;;;;;;;;;;6187847;28;20049;-70
2021/09/04 13:52:32;;;;;;;4.18;3.60;;;;;;;;;;6172084;28;20184;-71
2021/09/04 13:55:34;;;;;;;5.68;4.03;;;;;;;;;;6178779;28;20061;-73
2021/09/04 13:58:35;;;;;;;6.43;4.72;;;;;;;;;;6194140;28;20053;-71
2021/09/04 14:01:37;;;;;;;8.77;4.63;;;;;;;;;;6177769;28;20042;-72
2021/09/04 14:04:38;;;;;;;5.25;4.30;;;;;;;;;;6189514;28;20043;-71
2021/09/04 14:07:41;;;;;;;4.47;4.07;;;;;;;;;;6180102;28;20122;-72
2021/09/04 14:10:43;;;;;;;6.38;4.07;;;;;;;;;;6185076;28;20105;-71
2021/09/04 14:13:45;;;;;;;5.95;4.07;;;;;;;;;;6189907;28;20091;-71
2021/09/04 14:16:46;;;;;;;6.70;3.85;;;;;;;;;;6179714;28;20092;-72
2021/09/04 14:19:48;;;;;;;5.47;4.03;;;;;;;;;;6185173;28;20065;-73
2021/09/04 14:22:51;;;;;;;5.30;4.10;;;;;;;;;;6182817;28;20494;-71
2021/09/04 14:25:53;;;;;;;7.20;4.20;;;;;;;;;;6180824;28;20403;-72
2021/09/04 14:28:54;;;;;;;6.85;3.83;;;;;;;;;;6191579;28;20085;-72
2021/09/04 14:31:56;;;;;;;6.38;3.88;;;;;;;;;;6186230;28;20049;-72
2021/09/04 14:34:57;;;;;;;6.05;3.90;;;;;;;;;;6186419;28;20543;-74
2021/09/04 14:38:00;;;;;;;6.05;4.40;;;;;;;;;;6182328;28;20046;-71
2021/09/04 14:41:02;;;;;;;6.32;4.43;;;;;;;;;;6177186;28;20049;-73
2021/09/04 14:44:03;;;;;;;51.63;46.83;;;;;;;;;;6183110;28;20050;-70
2021/09/04 14:47:05;;;;;;;33.78;30.40;;;;;;;;;;6177816;28;20042;-69
2021/09/04 14:50:11;;;;;;;50.13;45.25;;;;;;;;;;6185899;28;20208;-71
2021/09/04 14:53:14;;;;;;;22.77;20.65;;;;;;;;;;6179828;28;20059;-69
2021/09/04 14:56:16;;;;;;;6.45;4.35;;;;;;;;;;6179946;28;20184;-72
2021/09/04 14:59:17;;;;;;;4.55;4.15;;;;;;;;;;6189855;28;20060;-70
2021/09/04 15:02:19;;;;;;;5.68;4.05;;;;;;;;;;6176186;28;20400;-71
2021/09/04 15:05:23;;;;;;;6.03;3.85;;;;;;;;;;6170477;28;20050;-73
2021/09/04 15:08:27;;;;;;;5.60;4.60;;;;;;;;;;6178975;28;20160;-71
2021/09/04 15:11:29;;;;;;;4.10;3.67;;;;;;;;;;6176611;28;20124;-70
2021/09/04 15:14:31;;;;;;;4.63;4.00;;;;;;;;;;6187040;28;20050;-70
2021/09/04 15:17:32;;;;;;;5.97;3.92;;;;;;;;;;6174884;28;20129;-71
2021/09/04 15:20:34;;;;;;;6.47;3.88;;;;;;;;;;6171335;28;20441;-70
2021/09/04 15:23:39;;;;;;;6.88;4.10;;;;;;;;;;6183509;28;20099;-70
2021/09/04 15:26:44;;;;;;;6.03;4.32;;;;;;;;;;6183697;28;20575;-70
2021/09/04 15:29:45;;;;;;;6.32;4.88;;;;;;;;;;6191535;28;20058;-71
2021/09/04 15:32:47;;;;;;;8.15;4.72;;;;;;;;;;6167133;28;20055;-70
2021/09/04 15:35:49;;;;;;;;;;;;;;;;;;6182046;28;20054;-71
2021/09/04 15:38:52;;;;;;;7.10;5.45;;;;;;;;;;6190522;28;19950;-68
2021/09/04 15:41:53;;;;;;;8.07;4.45;;;;;;;;;;6174842;28;20050;-71
2021/09/04 15:44:55;;;;;;;13.20;4.22;;;;;;;;;;6188855;28;20046;-70
2021/09/04 15:47:57;;;;;;;7.82;4.20;;;;;;;;;;6168156;28;20053;-70
2021/09/04 15:50:58;;;;;;;5.97;3.95;;;;;;;;;;6174457;28;20073;-71
2021/09/04 15:54:01;;;;;;;5.00;3.92;;;;;;;;;;6183112;28;20188;-71
2021/09/04 15:57:03;;;;;;;4.53;3.78;;;;;;;;;;6184984;28;20171;-73
2021/09/04 16:00:06;;;;;;;4.55;3.88;;;;;;;;;;6187416;28;20429;-72
2021/09/04 16:03:08;;;;;;;5.95;3.50;;;;;;;;;;6170054;28;20043;-69
2021/09/04 16:06:09;;;;;;;10.35;4.18;;;;;;;;;;6174149;28;20053;-70
2021/09/04 16:09:12;;;;;;;4.15;3.75;;;;;;;;;;6185496;28;20513;-72
2021/09/04 16:12:15;;;;;;;6.30;3.88;;;;;;;;;;6179379;28;20157;-70
2021/09/04 16:15:16;;;;;;;4.85;3.33;;;;;;;;;;6185696;28;20054;-72
2021/09/04 16:18:18;;;;;;;11.32;3.80;;;;;;;;;;6178659;28;20046;-72
2021/09/04 16:21:19;;;;;;;5.38;3.70;;;;;;;;;;6178255;28;20241;-70
2021/09/04 16:24:25;;;;;;;6.70;3.60;;;;;;;;;;6188734;28;20107;-71
2021/09/04 16:27:27;;;;;;;5.43;3.63;;;;;;;;;;6183878;28;20050;-70
2021/09/04 16:30:29;;;;;;;6.93;3.80;;;;;;;;;;6182060;28;20261;-70
2021/09/04 16:33:30;;;;;;;;;;;;;;;;;;6184289;28;20129;-69
2021/09/04 16:36:32;;;;;;;5.85;4.10;;;;;;;;;;6165629;28;19929;-70
2021/09/04 16:39:35;;;;;;;6.25;4.03;;;;;;;;;;6193078;28;20548;-70
2021/09/04 16:42:37;;;;;;;5.28;3.55;;;;;;;;;;6176302;28;20057;-70
2021/09/04 16:45:39;;;;;;;5.80;3.83;;;;;;;;;;6173630;28;20054;-69
2021/09/04 16:48:40;;;;;;;4.15;3.75;;;;;;;;;;6176344;28;20144;-69
2021/09/04 16:51:42;;;;;;;6.05;3.85;;;;;;;;;;6179020;28;20046;-69
2021/09/04 16:54:45;;;;;;;5.70;4.03;;;;;;;;;;6183688;28;20046;-69
2021/09/04 16:57:46;;;;;;;6.05;3.50;;;;;;;;;;6182452;28;20399;-69
2021/09/04 17:00:48;;;;;;;5.03;4.17;;;;;;;;;;6172096;28;20480;-69
2021/09/04 17:03:50;;;;;;;7.20;4.13;;;;;;;;;;6186115;28;20469;-70
2021/09/04 17:06:51;;;;;;;8.20;4.30;;;;;;;;;;6169745;28;20509;-69
2021/09/04 17:09:54;;;;;;;6.18;4.00;;;;;;;;;;6188591;28;20105;-71
2021/09/04 17:12:56;;;;;;;7.13;4.03;;;;;;;;;;6174313;28;20050;-70
2021/09/04 17:15:58;;;;;;;7.45;4.70;;;;;;;;;;6177518;28;20132;-71
2021/09/04 17:18:59;;;;;;;4.75;4.07;;;;;;;;;;6184220;28;20038;-69
2021/09/04 17:22:01;;;;;;;7.82;4.13;;;;;;;;;;6190401;28;20647;-69
2021/09/04 17:25:05;;;;;;;4.78;3.90;;;;;;;;;;6193518;28;20047;-68
2021/09/04 17:28:06;;;;;;;4.63;3.97;;;;;;;;;;6188219;28;20054;-69
2021/09/04 17:31:08;;;;;;;7.18;4.10;;;;;;;;;;6181290;28;20126;-68
2021/09/04 17:34:10;;;;;;;38.38;25.30;;;;;;;;;;6190687;28;20106;-69
2021/09/04 17:37:11;;;;;;;68.18;53.00;;;;;;;;;;6175634;28;20069;-70
2021/09/04 17:40:14;;;;;;;23.88;14.55;;;;;;;;;;6175486;28;20106;-70
2021/09/04 17:43:16;;;;;;;106.78;92.60;;;;;;;;;;6177228;28;20381;-70
2021/09/04 17:46:17;;;;;;;77.00;59.38;;;;;;;;;;6178211;28;20062;-70
2021/09/04 17:49:20;;;;;;;16.73;12.80;;;;;;;;;;6185442;28;20051;-70
2021/09/04 17:52:22;;;;;;;19.75;15.60;;;;;;;;;;6174743;28;20454;-70
2021/09/04 17:55:26;;;;;;;12.60;8.65;;;;;;;;;;6180915;28;20526;-70
2021/09/04 17:58:27;;;;;;;82.68;66.45;;;;;;;;;;6186570;28;20049;-71
2021/09/04 18:01:29;;;;;;;36.35;31.42;;;;;;;;;;6176002;28;20187;-68
2021/09/04 18:04:30;;;;;;;11.05;7.90;;;;;;;;;;6180190;28;20128;-70
2021/09/04 18:07:32;;;;;;;9.45;5.70;;;;;;;;;;6175291;28;20161;-69
2021/09/04 18:10:36;;;;;;;7.53;4.65;;;;;;;;;;6178087;28;20046;-71
2021/09/04 18:13:37;;;;;;;7.93;4.53;;;;;;;;;;6185002;28;20263;-68
2021/09/04 18:16:39;;;;;;;8.52;4.60;;;;;;;;;;6171002;28;20050;-67
2021/09/04 18:19:40;;;;;;;8.18;4.80;;;;;;;;;;6183933;28;20050;-66
2021/09/04 18:22:42;;;;;;;8.98;4.75;;;;;;;;;;6181413;28;20104;-69
2021/09/04 18:25:45;;;;;;;7.40;4.50;;;;;;;;;;6184571;28;20494;-68
2021/09/04 18:28:46;;;;;;;;;;;;;;;;;;6183357;28;20077;-67
2021/09/04 18:31:48;;;;;;;9.38;4.80;;;;;;;;;;6175103;28;20011;-67
2021/09/04 18:34:49;;;;;;;6.50;4.68;;;;;;;;;;6177908;28;20055;-68
2021/09/04 18:37:51;;;;;;;8.13;5.30;;;;;;;;;;6175065;28;20058;-67
2021/09/04 18:40:54;;;;;;;6.20;4.75;;;;;;;;;;6177036;28;20199;-67
2021/09/04 18:43:55;;;;;;;7.75;5.07;;;;;;;;;;6184678;28;20482;-67
2021/09/04 18:46:57;;;;;;;8.10;5.22;;;;;;;;;;6169255;28;20512;-69
2021/09/04 18:49:59;;;;;;;8.77;5.35;;;;;;;;;;6179174;28;20060;-71
2021/09/04 18:53:00;;;;;;;8.52;5.38;;;;;;;;;;6176603;28;20050;-68
2021/09/04 18:56:04;;;;;;;5.13;4.35;;;;;;;;;;6175674;28;20556;-67
2021/09/04 18:59:05;;;;;;;8.07;4.38;;;;;;;;;;6184237;28;20143;-67
2021/09/04 19:02:07;;;;;;;9.15;4.30;;;;;;;;;;6175441;28;20055;-70
2021/09/04 19:05:09;;;;;;;6.03;4.28;;;;;;;;;;6182180;28;20590;-70
2021/09/04 19:08:11;;;;;;;6.77;5.10;;;;;;;;;;6179792;28;20145;-67
2021/09/04 19:11:14;;;;;;;6.75;4.15;;;;;;;;;;6175988;28;21338;-67
2021/09/04 19:14:15;;;;;;;9.20;3.88;;;;;;;;;;6179821;28;20308;-70
2021/09/04 19:17:17;;;;;;;5.28;3.15;;;;;;;;;;6172959;28;20088;-69
2021/09/04 19:20:18;;;;;;;5.63;3.15;;;;;;;;;;6179793;28;20457;-70
2021/09/04 19:23:20;;;;;;;6.07;3.53;;;;;;;;;;6181423;28;20380;-67
2021/09/04 19:26:23;;;;;;;5.13;2.78;;;;;;;;;;6179245;28;20137;-69
2021/09/04 19:29:26;;;;;;;8.88;3.42;;;;;;;;;;6182101;28;20054;-67
2021/09/04 19:32:27;;;;;;;7.20;3.00;;;;;;;;;;6170073;28;20441;-67
2021/09/04 19:35:30;;;;;;;6.03;3.00;;;;;;;;;;6173842;28;20564;-68
2021/09/04 19:38:32;;;;;;;8.98;3.10;;;;;;;;;;6192754;28;20050;-67
2021/09/04 19:41:35;;;;;;;7.57;3.33;;;;;;;;;;6183916;28;20096;-68
2021/09/04 19:44:36;;;;;;;5.65;4.10;;;;;;;;;;6189030;28;20602;-67
2021/09/04 19:47:38;;;;;;;7.10;3.05;;;;;;;;;;6176740;28;20228;-67
2021/09/04 19:50:40;;;;;;;7.65;3.00;;;;;;;;;;6172426;28;20110;-67
2021/09/04 19:53:41;;;;;;;3.83;2.88;;;;;;;;;;6187291;28;20394;-67
2021/09/04 19:56:44;;;;;;;4.10;2.80;;;;;;;;;;6180088;28;20046;-68
2021/09/04 19:59:46;;;;;;;5.07;2.80;;;;;;;;;;6192042;28;20133;-67
2021/09/04 20:02:48;;;;;;;100.73;88.20;;;;;;;;;;6168514;28;20525;-68
2021/09/04 20:05:51;;;;;;;163.77;136.93;;;;;;;;;;6169285;28;20138;-67
2021/09/04 20:08:52;;;;;;;122.22;103.97;;;;;;;;;;6189194;28;20042;-69
2021/09/04 20:11:55;;;;;;;27.35;19.25;;;;;;;;;;6177427;28;20051;-66
2021/09/04 20:14:57;;;;;;;108.90;80.82;;;;;;;;;;6190033;28;20069;-66
2021/09/04 20:17:58;;;;;;;123.57;97.13;;;;;;;;;;6172659;28;20165;-69
2021/09/04 20:21:00;;;;;;;34.45;24.98;;;;;;;;;;6179727;28;20089;-67
2021/09/04 20:24:02;;;;;;;6.13;4.18;;;;;;;;;;6188767;28;20069;-66
2021/09/04 20:27:05;;;;;;;6.90;4.35;;;;;;;;;;6179524;28;20122;-65
2021/09/04 20:30:07;;;;;;;;;;;;;;;;;;6189228;28;20125;-77
2021/09/04 20:33:09;;;;;;;5.22;3.40;;;;;;;;;;6181396;28;20004;-69
2021/09/04 20:36:17;;;;;;;18.77;12.20;;;;;;;;;;6174668;28;20554;-70
2021/09/04 20:39:20;;;;;;;28.42;17.77;;;;;;;;;;6184721;28;20054;-70
2021/09/04 20:42:23;;;;;;;110.72;80.25;;;;;;;;;;6176613;28;20050;-76
2021/09/04 20:45:25;;;;;;;122.53;99.50;;;;;;;;;;6172680;28;20043;-70
2021/09/04 20:48:26;;;;;;;33.17;22.70;;;;;;;;;;6174345;28;20137;-69
2021/09/04 20:51:28;;;;;;;56.67;42.25;;;;;;;;;;6170784;28;20153;-69
2021/09/04 20:54:31;;;;;;;17.38;10.98;;;;;;;;;;6181253;28;20085;-68
2021/09/04 20:57:34;;;;;;;55.50;39.28;;;;;;;;;;6179477;28;20078;-68
2021/09/04 21:00:35;;;;;;;77.57;52.88;;;;;;;;;;6176486;28;20059;-68
2021/09/04 21:03:39;;;;;;;129.45;100.60;;;;;;;;;;6176311;28;20177;-67
2021/09/04 21:06:40;;;;;;;;;;;;;;;;;;6174656;28;20038;-68
2021/09/04 21:09:42;;;;;;;43.80;32.10;;;;;;;;;;6184226;28;20009;-70
2021/09/04 21:12:44;;;;;;;60.60;48.17;;;;;;;;;;6179216;28;20189;-69
2021/09/04 21:15:46;;;;;;;65.97;46.85;;;;;;;;;;6174554;28;21089;-68
2021/09/04 21:18:48;;;;;;;46.47;31.92;;;;;;;;;;6179200;28;20585;-68
2021/09/04 21:21:49;;;;;;;27.00;20.08;;;;;;;;;;6178292;28;20601;-68
2021/09/04 21:24:51;;;;;;;13.88;7.72;;;;;;;;;;6181356;28;20058;-69
2021/09/04 21:27:54;;;;;;;16.20;8.10;;;;;;;;;;6179143;28;20094;-67
2021/09/04 21:30:56;;;;;;;20.02;15.93;;;;;;;;;;6168881;28;20050;-67
2021/09/04 21:33:57;;;;;;;14.00;10.82;;;;;;;;;;6181399;28;20694;-67
2021/09/04 21:36:59;;;;;;;117.22;83.38;;;;;;;;;;6170864;28;20391;-67
2021/09/04 21:40:00;;;;;;;78.38;58.45;;;;;;;;;;6184469;28;20129;-68
2021/09/04 21:43:03;;;;;;;103.68;75.32;;;;;;;;;;6173499;28;20387;-68
2021/09/04 21:46:05;;;;;;;48.78;35.92;;;;;;;;;;6173284;28;20137;-69
2021/09/04 21:49:06;;;;;;;85.03;66.93;;;;;;;;;;6184743;28;20085;-68
2021/09/04 21:52:08;;;;;;;12.05;8.48;;;;;;;;;;6181588;28;20054;-68
2021/09/04 21:55:10;;;;;;;15.30;10.27;;;;;;;;;;6190023;28;20141;-72
2021/09/04 21:58:13;;;;;;;13.48;7.60;;;;;;;;;;6185017;28;20526;-71
2021/09/04 22:01:14;;;;;;;11.52;8.82;;;;;;;;;;6171473;28;20132;-65
2021/09/04 22:04:16;;;;;;;5.00;3.60;;;;;;;;;;6179398;28;20062;-67
2021/09/04 22:07:18;;;;;;;52.95;35.58;;;;;;;;;;6179347;28;20131;-71
2021/09/04 22:10:19;;;;;;;212.25;149.55;;;;;;;;;;6179623;28;20133;-72
2021/09/04 22:13:23;;;;;;;51.50;35.42;;;;;;;;;;6184731;28;20133;-70
2021/09/04 22:16:25;;;;;;;111.18;82.65;;;;;;;;;;6174769;28;20811;-75